Pagrindinis puslapis
METAR-TAF:

METAR-TAF

Oro uostai :

Briuselio oro uostas

Briuselis, Belgija

platuma: 50-54N, ilguma: 004-32E, Aukštis: 55 m

Dabartinis oras

Ataskaita buvo paskelbta 36 minutes, ne 21:50 UTC
Vėjas 10 kt iš Pietvakarių
Temperatūra 9°C
Drėgmė 87%
Slėgis 999 hPa
Matomumas 10 km arba daugiau
Mažai debesys ne aukštis 3900 ft

METAR: EBBR 052150Z 22010KT 9999 FEW039 09/07 Q0999 NOSIG

Laikas: 00:26 (22:26 UTC)

Prognozė

Ataskaita buvo paskelbta 5 valandos ir 6 minutes, ne 17:20 UTC
Prognozė galioja nuo 05 metu 18 UTC su 06 metu 24 UTC
Vėjas 10 kt iš Vakarų/Pietvakarių
Matomumas 10 km arba daugiau
Išsisklaidę debesys ne aukštis 3500 ft
Tikimybė 30% :
Laikinai
nuo 05 metu 18 UTC su 06 metu 04 UTC
Matomumas: 3500 m
lietus
Tapsmas
nuo 06 metu 08 UTC su 06 metu 10 UTC
Vėjas 15 kt iš Vakarų/Pietvakarių su gūsio iki 25 kt

TAF: EBBR 051720Z 0518/0624 25010KT 9999 SCT035 PROB30 TEMPO 0518/0604 3500 SHRA BECMG 0608/0610 24015G25KT

Orai ataskaitas ir orų prognozės (METAR, TAF).

turimą stotys yra geltonos ir raudonos taškus žemėlapyje.

Perkelti pele per norėdami pamatyti stoties vardą.

Tada spustelėkite, norėdami matyti oro stebėjimo ir prognozės.

Norėdami pakeisti žemėlapį: spustelėkite ant žalios mygtukų su juodo kryžiaus žemyn,; žalią mygtuką su brūkšneliu, jei norite nutolinti; arba žalių rodyklių gretimoms žemėlapius.


METAR-TAF: